< < Back
Terminal Aerodrome Forecast


Current Version              Previous Versions:   1  2  3  4  5  6  7  8  9  

Terminal Aerodrome Forecast

401
FTUS42 KTAE 210500
TAFDHN
TAF
KDHN 210522Z 2106/2206 03005KT P6SM SKC
     FM211100 00000KT 5SM BR SKC
     FM211300 30004KT P6SM FEW250=

Latest METAR

677
SAUS70 KWBC 210800 RRG
MTRDHN
METAR KDHN 210753Z AUTO 00000KT 7SM CLR 19/18 A3003 RMK AO2 SLP164
T01890178


USA.gov is the U.S. government's official web portal to all federal, state and local government web resources and services.